sensor_id;sensor_type;location;lat;lon;timestamp;pressure;altitude;pressure_sealevel;temperature;humidity
38530;BME280;24301;54.332;48.386;2022-12-18T00:01:57;99410.38;;;-4.26;100.00
38530;BME280;24301;54.332;48.386;2022-12-18T00:04:27;99412.44;;;-4.19;100.00
38530;BME280;24301;54.332;48.386;2022-12-18T00:06:53;99411.59;;;-4.20;100.00
38530;BME280;24301;54.332;48.386;2022-12-18T00:09:20;99420.16;;;-4.19;100.00
38530;BME280;24301;54.332;48.386;2022-12-18T00:11:45;99418.53;;;-4.17;100.00
38530;BME280;24301;54.332;48.386;2022-12-18T00:14:12;99397.22;;;-4.16;100.00
38530;BME280;24301;54.332;48.386;2022-12-18T00:16:39;99408.06;;;-4.22;100.00
38530;BME280;24301;54.332;48.386;2022-12-18T00:19:06;99403.94;;;-4.18;100.00
38530;BME280;24301;54.332;48.386;2022-12-18T00:21:33;99398.09;;;-4.15;100.00
38530;BME280;24301;54.332;48.386;2022-12-18T00:23:59;99392.25;;;-4.13;100.00
38530;BME280;24301;54.332;48.386;2022-12-18T00:26:30;99388.91;;;-4.10;100.00
38530;BME280;24301;54.332;48.386;2022-12-18T00:29:01;99400.00;;;-4.11;100.00
38530;BME280;24301;54.332;48.386;2022-12-18T00:31:31;99392.25;;;-4.13;100.00
38530;BME280;24301;54.332;48.386;2022-12-18T00:33:58;99398.47;;;-4.08;100.00
38530;BME280;24301;54.332;48.386;2022-12-18T00:36:27;99391.44;;;-4.12;100.00
38530;BME280;24301;54.332;48.386;2022-12-18T00:38:54;99378.75;;;-4.09;100.00
38530;BME280;24301;54.332;48.386;2022-12-18T00:41:21;99373.59;;;-4.09;100.00
38530;BME280;24301;54.332;48.386;2022-12-18T00:44:08;99378.19;;;-4.03;100.00
38530;BME280;24301;54.332;48.386;2022-12-18T00:46:34;99361.56;;;-4.10;100.00
38530;BME280;24301;54.332;48.386;2022-12-18T00:49:00;99363.72;;;-4.01;100.00
38530;BME280;24301;54.332;48.386;2022-12-18T00:51:26;99336.03;;;-4.07;100.00
38530;BME280;24301;54.332;48.386;2022-12-18T00:53:53;99322.66;;;-3.99;100.00
38530;BME280;24301;54.332;48.386;2022-12-18T00:56:22;99326.19;;;-3.97;100.00
38530;BME280;24301;54.332;48.386;2022-12-18T00:58:48;99321.88;;;-3.98;100.00
38530;BME280;24301;54.332;48.386;2022-12-18T01:01:15;99322.53;;;-4.02;100.00
38530;BME280;24301;54.332;48.386;2022-12-18T01:03:41;99321.47;;;-4.06;100.00
38530;BME280;24301;54.332;48.386;2022-12-18T01:06:08;99320.75;;;-4.04;100.00
38530;BME280;24301;54.332;48.386;2022-12-18T01:08:35;99298.44;;;-4.05;100.00
38530;BME280;24301;54.332;48.386;2022-12-18T01:11:06;99297.66;;;-4.04;100.00
38530;BME280;24301;54.332;48.386;2022-12-18T01:13:33;99312.25;;;-4.02;100.00
38530;BME280;24301;54.332;48.386;2022-12-18T01:15:59;99304.47;;;-4.04;100.00
38530;BME280;24301;54.332;48.386;2022-12-18T01:18:25;99314.81;;;-4.02;100.00
38530;BME280;24301;54.332;48.386;2022-12-18T01:20:50;99315.53;;;-4.05;100.00
38530;BME280;24301;54.332;48.386;2022-12-18T01:23:16;99295.66;;;-4.09;100.00
38530;BME280;24301;54.332;48.386;2022-12-18T01:25:42;99298.31;;;-4.08;100.00
38530;BME280;24301;54.332;48.386;2022-12-18T01:28:09;99276.13;;;-4.06;100.00
38530;BME280;24301;54.332;48.386;2022-12-18T01:30:35;99267.63;;;-4.05;100.00
38530;BME280;24301;54.332;48.386;2022-12-18T01:33:00;99270.34;;;-4.01;100.00
38530;BME280;24301;54.332;48.386;2022-12-18T01:35:26;99262.50;;;-4.05;100.00
38530;BME280;24301;54.332;48.386;2022-12-18T01:37:56;99271.16;;;-4.02;100.00
38530;BME280;24301;54.332;48.386;2022-12-18T01:40:22;99258.41;;;-4.01;100.00
38530;BME280;24301;54.332;48.386;2022-12-18T01:42:54;99237.22;;;-3.95;100.00
38530;BME280;24301;54.332;48.386;2022-12-18T01:45:31;99228.78;;;-3.93;100.00
38530;BME280;24301;54.332;48.386;2022-12-18T01:48:06;99222.28;;;-3.86;100.00
38530;BME280;24301;54.332;48.386;2022-12-18T01:50:36;99232.22;;;-3.92;100.00
38530;BME280;24301;54.332;48.386;2022-12-18T01:53:19;99225.78;;;-3.84;100.00
38530;BME280;24301;54.332;48.386;2022-12-18T01:55:56;99215.50;;;-3.84;100.00
38530;BME280;24301;54.332;48.386;2022-12-18T01:58:46;99201.72;;;-3.86;100.00
38530;BME280;24301;54.332;48.386;2022-12-18T02:01:14;99182.25;;;-3.81;100.00
38530;BME280;24301;54.332;48.386;2022-12-18T02:03:44;99177.91;;;-3.82;100.00
38530;BME280;24301;54.332;48.386;2022-12-18T02:06:36;99167.63;;;-3.82;100.00
38530;BME280;24301;54.332;48.386;2022-12-18T02:09:17;99184.34;;;-3.72;100.00
38530;BME280;24301;54.332;48.386;2022-12-18T02:12:13;99154.69;;;-3.65;100.00
38530;BME280;24301;54.332;48.386;2022-12-18T02:17:21;99133.38;;;-3.63;100.00
38530;BME280;24301;54.332;48.386;2022-12-18T02:20:17;99167.00;;;-3.58;100.00
38530;BME280;24301;54.332;48.386;2022-12-18T02:28:30;99104.50;;;-3.57;100.00
38530;BME280;24301;54.332;48.386;2022-12-18T02:31:02;99108.88;;;-3.54;100.00
38530;BME280;24301;54.332;48.386;2022-12-18T02:33:30;99096.34;;;-3.47;100.00
38530;BME280;24301;54.332;48.386;2022-12-18T02:35:58;99093.66;;;-3.50;100.00
38530;BME280;24301;54.332;48.386;2022-12-18T02:38:28;99064.31;;;-3.55;100.00
38530;BME280;24301;54.332;48.386;2022-12-18T02:40:58;99069.44;;;-3.55;100.00
38530;BME280;24301;54.332;48.386;2022-12-18T02:43:25;99063.50;;;-3.54;100.00
38530;BME280;24301;54.332;48.386;2022-12-18T02:45:56;99026.06;;;-3.47;100.00
38530;BME280;24301;54.332;48.386;2022-12-18T02:48:31;99035.47;;;-3.48;100.00
38530;BME280;24301;54.332;48.386;2022-12-18T02:51:07;99007.63;;;-3.37;100.00
38530;BME280;24301;54.332;48.386;2022-12-18T02:53:43;99022.25;;;-3.36;100.00
38530;BME280;24301;54.332;48.386;2022-12-18T02:56:35;99038.63;;;-3.34;100.00
38530;BME280;24301;54.332;48.386;2022-12-18T02:59:16;99032.72;;;-3.31;100.00
38530;BME280;24301;54.332;48.386;2022-12-18T03:02:02;99009.91;;;-3.23;100.00
38530;BME280;24301;54.332;48.386;2022-12-18T03:04:42;99022.19;;;-3.16;100.00
38530;BME280;24301;54.332;48.386;2022-12-18T03:07:16;99028.09;;;-3.19;100.00
38530;BME280;24301;54.332;48.386;2022-12-18T03:09:48;99024.03;;;-3.13;100.00
38530;BME280;24301;54.332;48.386;2022-12-18T03:12:29;99052.63;;;-3.06;100.00
38530;BME280;24301;54.332;48.386;2022-12-18T03:15:10;98979.38;;;-3.15;100.00
38530;BME280;24301;54.332;48.386;2022-12-18T03:18:15;98976.38;;;-3.04;100.00
38530;BME280;24301;54.332;48.386;2022-12-18T03:23:51;98959.25;;;-3.03;100.00
38530;BME280;24301;54.332;48.386;2022-12-18T03:26:23;98937.00;;;-3.03;100.00
38530;BME280;24301;54.332;48.386;2022-12-18T03:28:59;98963.59;;;-3.02;100.00
38530;BME280;24301;54.332;48.386;2022-12-18T03:31:30;98947.56;;;-2.95;100.00
38530;BME280;24301;54.332;48.386;2022-12-18T03:33:59;98915.13;;;-2.91;100.00
38530;BME280;24301;54.332;48.386;2022-12-18T03:36:36;98920.16;;;-2.94;100.00
38530;BME280;24301;54.332;48.386;2022-12-18T03:39:02;98914.13;;;-2.95;100.00
38530;BME280;24301;54.332;48.386;2022-12-18T03:42:12;98892.81;;;-2.91;100.00
38530;BME280;24301;54.332;48.386;2022-12-18T03:45:02;98917.88;;;-2.86;100.00
38530;BME280;24301;54.332;48.386;2022-12-18T03:50:45;98881.19;;;-2.81;100.00
38530;BME280;24301;54.332;48.386;2022-12-18T03:56:38;98887.22;;;-2.80;100.00
38530;BME280;24301;54.332;48.386;2022-12-18T03:59:08;98880.50;;;-2.77;100.00
38530;BME280;24301;54.332;48.386;2022-12-18T04:01:42;98853.88;;;-2.77;100.00
38530;BME280;24301;54.332;48.386;2022-12-18T04:04:12;98872.19;;;-2.69;100.00
38530;BME280;24301;54.332;48.386;2022-12-18T04:06:41;98859.72;;;-2.58;100.00
38530;BME280;24301;54.332;48.386;2022-12-18T04:09:10;98877.84;;;-2.55;100.00
38530;BME280;24301;54.332;48.386;2022-12-18T04:11:42;98892.38;;;-2.56;100.00
38530;BME280;24301;54.332;48.386;2022-12-18T04:14:13;98864.13;;;-2.54;100.00
38530;BME280;24301;54.332;48.386;2022-12-18T04:16:39;98857.34;;;-2.52;100.00
38530;BME280;24301;54.332;48.386;2022-12-18T04:19:08;98892.06;;;-2.41;100.00
38530;BME280;24301;54.332;48.386;2022-12-18T04:21:38;98888.19;;;-2.29;100.00
38530;BME280;24301;54.332;48.386;2022-12-18T04:24:05;98868.53;;;-2.27;100.00
38530;BME280;24301;54.332;48.386;2022-12-18T04:26:33;98910.63;;;-2.27;100.00
38530;BME280;24301;54.332;48.386;2022-12-18T04:29:28;98864.38;;;-2.24;100.00
38530;BME280;24301;54.332;48.386;2022-12-18T04:31:54;98845.59;;;-2.20;100.00
38530;BME280;24301;54.332;48.386;2022-12-18T04:34:20;98849.97;;;-2.17;100.00
38530;BME280;24301;54.332;48.386;2022-12-18T04:36:49;98856.19;;;-2.12;100.00
38530;BME280;24301;54.332;48.386;2022-12-18T04:39:17;98820.88;;;-2.14;100.00
38530;BME280;24301;54.332;48.386;2022-12-18T04:41:44;98815.88;;;-2.10;100.00
38530;BME280;24301;54.332;48.386;2022-12-18T04:44:12;98834.84;;;-2.08;100.00
38530;BME280;24301;54.332;48.386;2022-12-18T04:46:37;98819.53;;;-2.03;100.00
38530;BME280;24301;54.332;48.386;2022-12-18T04:49:03;98854.22;;;-1.93;100.00
38530;BME280;24301;54.332;48.386;2022-12-18T04:51:29;98842.25;;;-1.91;100.00
38530;BME280;24301;54.332;48.386;2022-12-18T04:53:55;98836.44;;;-1.85;100.00
38530;BME280;24301;54.332;48.386;2022-12-18T04:56:21;98810.97;;;-1.76;100.00
38530;BME280;24301;54.332;48.386;2022-12-18T04:58:47;98824.97;;;-1.68;100.00
38530;BME280;24301;54.332;48.386;2022-12-18T05:01:14;98811.25;;;-1.67;100.00
38530;BME280;24301;54.332;48.386;2022-12-18T05:03:40;98798.59;;;-1.59;100.00
38530;BME280;24301;54.332;48.386;2022-12-18T05:06:07;98808.09;;;-1.58;100.00
38530;BME280;24301;54.332;48.386;2022-12-18T05:08:33;98809.94;;;-1.54;100.00
38530;BME280;24301;54.332;48.386;2022-12-18T05:11:00;98796.94;;;-1.57;100.00
38530;BME280;24301;54.332;48.386;2022-12-18T05:13:26;98793.63;;;-1.53;100.00
38530;BME280;24301;54.332;48.386;2022-12-18T05:15:53;98803.28;;;-1.47;100.00
38530;BME280;24301;54.332;48.386;2022-12-18T05:18:19;98780.97;;;-1.45;100.00
38530;BME280;24301;54.332;48.386;2022-12-18T05:20:45;98766.38;;;-1.45;100.00
38530;BME280;24301;54.332;48.386;2022-12-18T05:23:11;98761.13;;;-1.48;100.00
38530;BME280;24301;54.332;48.386;2022-12-18T05:25:37;98780.19;;;-1.42;100.00
38530;BME280;24301;54.332;48.386;2022-12-18T05:28:03;98761.41;;;-1.38;100.00
38530;BME280;24301;54.332;48.386;2022-12-18T05:30:29;98771.81;;;-1.35;100.00
38530;BME280;24301;54.332;48.386;2022-12-18T05:32:55;98782.31;;;-1.29;100.00
38530;BME280;24301;54.332;48.386;2022-12-18T05:35:21;98768.69;;;-1.25;100.00
38530;BME280;24301;54.332;48.386;2022-12-18T05:37:47;98760.19;;;-1.21;100.00
38530;BME280;24301;54.332;48.386;2022-12-18T05:40:13;98717.25;;;-1.19;100.00
38530;BME280;24301;54.332;48.386;2022-12-18T05:42:38;98737.06;;;-1.18;100.00
38530;BME280;24301;54.332;48.386;2022-12-18T05:45:05;98709.59;;;-1.16;100.00
38530;BME280;24301;54.332;48.386;2022-12-18T05:47:31;98732.03;;;-1.13;100.00
38530;BME280;24301;54.332;48.386;2022-12-18T05:49:57;98747.59;;;-1.10;100.00
38530;BME280;24301;54.332;48.386;2022-12-18T05:52:23;98733.09;;;-1.06;100.00
38530;BME280;24301;54.332;48.386;2022-12-18T05:54:48;98724.53;;;-1.05;100.00
38530;BME280;24301;54.332;48.386;2022-12-18T05:57:14;98728.09;;;-1.00;100.00
38530;BME280;24301;54.332;48.386;2022-12-18T05:59:40;98695.47;;;-0.98;100.00
38530;BME280;24301;54.332;48.386;2022-12-18T06:02:06;98688.56;;;-0.99;100.00
38530;BME280;24301;54.332;48.386;2022-12-18T06:04:32;98685.13;;;-0.98;100.00
38530;BME280;24301;54.332;48.386;2022-12-18T06:06:58;98745.25;;;-1.02;100.00
38530;BME280;24301;54.332;48.386;2022-12-18T06:09:24;98693.63;;;-1.02;100.00
38530;BME280;24301;54.332;48.386;2022-12-18T06:11:52;98674.72;;;-1.01;100.00
38530;BME280;24301;54.332;48.386;2022-12-18T06:14:18;98689.31;;;-1.03;100.00
38530;BME280;24301;54.332;48.386;2022-12-18T06:16:44;98686.06;;;-0.96;100.00
38530;BME280;24301;54.332;48.386;2022-12-18T06:19:14;98697.47;;;-0.88;100.00
38530;BME280;24301;54.332;48.386;2022-12-18T06:21:41;98684.59;;;-0.86;100.00
38530;BME280;24301;54.332;48.386;2022-12-18T06:24:07;98697.56;;;-0.84;100.00
38530;BME280;24301;54.332;48.386;2022-12-18T06:26:33;98698.38;;;-0.85;100.00
38530;BME280;24301;54.332;48.386;2022-12-18T06:28:59;98700.06;;;-0.86;100.00
38530;BME280;24301;54.332;48.386;2022-12-18T06:31:25;98690.66;;;-0.85;100.00
38530;BME280;24301;54.332;48.386;2022-12-18T06:33:51;98697.78;;;-0.75;100.00
38530;BME280;24301;54.332;48.386;2022-12-18T06:36:17;98693.50;;;-0.75;100.00
38530;BME280;24301;54.332;48.386;2022-12-18T06:38:43;98680.78;;;-0.67;100.00
38530;BME280;24301;54.332;48.386;2022-12-18T06:41:18;98679.03;;;-0.68;100.00
38530;BME280;24301;54.332;48.386;2022-12-18T06:43:45;98675.78;;;-0.61;100.00
38530;BME280;24301;54.332;48.386;2022-12-18T06:46:11;98681.03;;;-0.57;100.00
38530;BME280;24301;54.332;48.386;2022-12-18T06:48:37;98680.28;;;-0.53;100.00
38530;BME280;24301;54.332;48.386;2022-12-18T06:51:04;98685.50;;;-0.50;100.00
38530;BME280;24301;54.332;48.386;2022-12-18T06:53:31;98670.84;;;-0.51;100.00
38530;BME280;24301;54.332;48.386;2022-12-18T06:56:05;98677.97;;;-0.42;100.00
38530;BME280;24301;54.332;48.386;2022-12-18T06:58:32;98669.38;;;-0.41;100.00
38530;BME280;24301;54.332;48.386;2022-12-18T07:01:06;98660.81;;;-0.39;100.00
38530;BME280;24301;54.332;48.386;2022-12-18T07:03:32;98660.66;;;-0.45;100.00
38530;BME280;24301;54.332;48.386;2022-12-18T07:05:58;98652.00;;;-0.47;100.00
38530;BME280;24301;54.332;48.386;2022-12-18T07:08:24;98640.25;;;-0.36;100.00
38530;BME280;24301;54.332;48.386;2022-12-18T07:10:50;98618.88;;;-0.28;100.00
38530;BME280;24301;54.332;48.386;2022-12-18T07:13:16;98616.16;;;-0.35;100.00
38530;BME280;24301;54.332;48.386;2022-12-18T07:15:43;98607.44;;;-0.38;100.00
38530;BME280;24301;54.332;48.386;2022-12-18T07:18:09;98598.81;;;-0.39;100.00
38530;BME280;24301;54.332;48.386;2022-12-18T07:20:36;98593.75;;;-0.36;100.00
38530;BME280;24301;54.332;48.386;2022-12-18T07:23:03;98594.78;;;-0.26;100.00
38530;BME280;24301;54.332;48.386;2022-12-18T07:25:36;98589.63;;;-0.26;100.00
38530;BME280;24301;54.332;48.386;2022-12-18T07:28:03;98561.38;;;-0.18;100.00
38530;BME280;24301;54.332;48.386;2022-12-18T07:30:29;98574.59;;;-0.06;100.00
38530;BME280;24301;54.332;48.386;2022-12-18T07:32:54;98563.53;;;0.02;100.00
38530;BME280;24301;54.332;48.386;2022-12-18T07:35:20;98497.28;;;0.05;100.00
38530;BME280;24301;54.332;48.386;2022-12-18T07:37:46;98567.31;;;0.18;100.00
38530;BME280;24301;54.332;48.386;2022-12-18T07:40:12;98556.25;;;0.25;100.00
38530;BME280;24301;54.332;48.386;2022-12-18T07:42:38;98577.13;;;0.34;100.00
38530;BME280;24301;54.332;48.386;2022-12-18T07:45:04;98616.84;;;0.36;100.00
38530;BME280;24301;54.332;48.386;2022-12-18T07:47:34;98593.56;;;0.36;100.00
38530;BME280;24301;54.332;48.386;2022-12-18T07:50:00;98646.22;;;0.40;100.00
38530;BME280;24301;54.332;48.386;2022-12-18T07:52:26;98616.88;;;0.39;100.00
38530;BME280;24301;54.332;48.386;2022-12-18T07:54:52;98633.41;;;0.46;100.00
38530;BME280;24301;54.332;48.386;2022-12-18T07:57:17;98648.09;;;0.49;100.00
38530;BME280;24301;54.332;48.386;2022-12-18T07:59:43;98628.34;;;0.52;100.00
38530;BME280;24301;54.332;48.386;2022-12-18T08:02:09;98585.13;;;0.47;100.00
38530;BME280;24301;54.332;48.386;2022-12-18T08:04:35;98591.97;;;0.43;100.00
38530;BME280;24301;54.332;48.386;2022-12-18T08:07:01;98581.69;;;0.46;100.00
38530;BME280;24301;54.332;48.386;2022-12-18T08:09:27;98579.94;;;0.45;100.00
38530;BME280;24301;54.332;48.386;2022-12-18T08:11:53;98572.97;;;0.41;100.00
38530;BME280;24301;54.332;48.386;2022-12-18T08:14:18;98535.94;;;0.43;100.00
38530;BME280;24301;54.332;48.386;2022-12-18T08:16:44;98513.59;;;0.49;100.00
38530;BME280;24301;54.332;48.386;2022-12-18T08:19:10;98506.78;;;0.52;100.00
38530;BME280;24301;54.332;48.386;2022-12-18T08:21:36;98519.75;;;0.54;100.00
38530;BME280;24301;54.332;48.386;2022-12-18T08:24:03;98533.53;;;0.54;100.00
38530;BME280;24301;54.332;48.386;2022-12-18T08:26:30;98544.78;;;0.55;100.00
38530;BME280;24301;54.332;48.386;2022-12-18T08:28:57;98531.91;;;0.58;100.00
38530;BME280;24301;54.332;48.386;2022-12-18T08:31:25;98540.41;;;0.52;100.00
38530;BME280;24301;54.332;48.386;2022-12-18T08:33:52;98541.34;;;0.56;100.00
38530;BME280;24301;54.332;48.386;2022-12-18T08:36:19;98546.56;;;0.59;100.00
38530;BME280;24301;54.332;48.386;2022-12-18T08:38:45;98518.25;;;0.67;100.00
38530;BME280;24301;54.332;48.386;2022-12-18T08:41:13;98528.66;;;0.70;100.00
38530;BME280;24301;54.332;48.386;2022-12-18T08:43:40;98531.44;;;0.81;100.00
38530;BME280;24301;54.332;48.386;2022-12-18T08:46:26;98553.16;;;0.89;100.00
38530;BME280;24301;54.332;48.386;2022-12-18T08:48:53;98512.66;;;0.93;100.00
38530;BME280;24301;54.332;48.386;2022-12-18T08:51:20;98524.78;;;0.95;100.00
38530;BME280;24301;54.332;48.386;2022-12-18T08:53:47;98496.38;;;1.00;100.00
38530;BME280;24301;54.332;48.386;2022-12-18T08:56:14;98517.09;;;1.00;100.00
38530;BME280;24301;54.332;48.386;2022-12-18T08:58:40;98515.34;;;0.99;100.00
38530;BME280;24301;54.332;48.386;2022-12-18T09:01:10;98509.22;;;0.94;100.00
38530;BME280;24301;54.332;48.386;2022-12-18T09:03:37;98518.75;;;0.95;100.00
38530;BME280;24301;54.332;48.386;2022-12-18T09:06:03;98502.38;;;0.97;100.00
38530;BME280;24301;54.332;48.386;2022-12-18T09:08:29;98525.66;;;0.96;100.00
38530;BME280;24301;54.332;48.386;2022-12-18T09:10:56;98537.69;;;0.94;100.00
38530;BME280;24301;54.332;48.386;2022-12-18T09:13:22;98551.50;;;0.93;100.00
38530;BME280;24301;54.332;48.386;2022-12-18T09:15:51;98553.22;;;0.94;100.00
38530;BME280;24301;54.332;48.386;2022-12-18T09:18:18;98544.66;;;0.98;100.00
38530;BME280;24301;54.332;48.386;2022-12-18T09:20:45;98563.63;;;0.97;100.00
38530;BME280;24301;54.332;48.386;2022-12-18T09:23:12;98545.53;;;0.98;100.00
38530;BME280;24301;54.332;48.386;2022-12-18T09:25:38;98548.97;;;0.97;100.00
38530;BME280;24301;54.332;48.386;2022-12-18T09:28:16;98522.22;;;0.98;100.00
38530;BME280;24301;54.332;48.386;2022-12-18T09:30:45;98561.06;;;0.97;100.00
38530;BME280;24301;54.332;48.386;2022-12-18T09:33:11;98548.09;;;0.97;100.00
38530;BME280;24301;54.332;48.386;2022-12-18T09:35:38;98559.41;;;1.02;100.00
38530;BME280;24301;54.332;48.386;2022-12-18T09:38:05;98565.47;;;1.04;100.00
38530;BME280;24301;54.332;48.386;2022-12-18T09:40:39;98572.41;;;1.05;100.00
38530;BME280;24301;54.332;48.386;2022-12-18T09:43:06;98566.41;;;1.08;100.00
38530;BME280;24301;54.332;48.386;2022-12-18T09:45:42;98546.56;;;1.07;100.00
38530;BME280;24301;54.332;48.386;2022-12-18T09:48:30;98527.56;;;1.08;100.00
38530;BME280;24301;54.332;48.386;2022-12-18T09:51:27;98543.03;;;1.02;100.00
38530;BME280;24301;54.332;48.386;2022-12-18T09:54:12;98524.91;;;1.03;100.00
38530;BME280;24301;54.332;48.386;2022-12-18T09:56:42;98522.28;;;1.00;100.00
38530;BME280;24301;54.332;48.386;2022-12-18T09:59:25;98524.91;;;1.02;100.00
38530;BME280;24301;54.332;48.386;2022-12-18T10:01:52;98527.44;;;1.00;100.00
38530;BME280;24301;54.332;48.386;2022-12-18T10:04:18;98524.09;;;1.07;100.00
38530;BME280;24301;54.332;48.386;2022-12-18T10:07:03;98551.75;;;1.08;100.00
38530;BME280;24301;54.332;48.386;2022-12-18T10:10:01;98546.66;;;1.13;100.00
38530;BME280;24301;54.332;48.386;2022-12-18T10:12:41;98545.84;;;1.16;100.00
38530;BME280;24301;54.332;48.386;2022-12-18T10:20:45;98503.69;;;1.26;100.00
38530;BME280;24301;54.332;48.386;2022-12-18T10:23:56;98520.97;;;1.27;100.00
38530;BME280;24301;54.332;48.386;2022-12-18T10:26:24;98509.75;;;1.28;100.00
38530;BME280;24301;54.332;48.386;2022-12-18T10:28:51;98541.69;;;1.27;100.00
38530;BME280;24301;54.332;48.386;2022-12-18T10:31:21;98524.44;;;1.29;100.00
38530;BME280;24301;54.332;48.386;2022-12-18T10:33:48;98533.88;;;1.25;100.00
38530;BME280;24301;54.332;48.386;2022-12-18T10:36:14;98510.53;;;1.21;100.00
38530;BME280;24301;54.332;48.386;2022-12-18T10:38:41;98545.00;;;1.18;100.00
38530;BME280;24301;54.332;48.386;2022-12-18T10:41:24;98518.25;;;1.19;100.00
38530;BME280;24301;54.332;48.386;2022-12-18T10:44:21;98493.19;;;1.17;100.00
38530;BME280;24301;54.332;48.386;2022-12-18T10:46:54;98461.25;;;1.16;100.00
38530;BME280;24301;54.332;48.386;2022-12-18T10:49:24;98495.84;;;1.21;100.00
38530;BME280;24301;54.332;48.386;2022-12-18T10:51:51;98453.56;;;1.21;100.00
38530;BME280;24301;54.332;48.386;2022-12-18T10:54:30;98469.97;;;1.24;100.00
38530;BME280;24301;54.332;48.386;2022-12-18T10:59:51;98470.78;;;1.20;100.00
38530;BME280;24301;54.332;48.386;2022-12-18T11:02:35;98474.31;;;1.24;100.00
38530;BME280;24301;54.332;48.386;2022-12-18T11:05:02;98464.81;;;1.24;100.00
38530;BME280;24301;54.332;48.386;2022-12-18T11:08:01;98487.25;;;1.25;100.00
38530;BME280;24301;54.332;48.386;2022-12-18T11:10:37;98479.53;;;1.27;100.00
38530;BME280;24301;54.332;48.386;2022-12-18T11:13:23;98458.78;;;1.24;100.00
38530;BME280;24301;54.332;48.386;2022-12-18T11:15:50;98460.47;;;1.23;100.00
38530;BME280;24301;54.332;48.386;2022-12-18T11:21:00;98458.78;;;1.25;100.00
38530;BME280;24301;54.332;48.386;2022-12-18T11:23:31;98471.72;;;1.25;100.00
38530;BME280;24301;54.332;48.386;2022-12-18T11:25:59;98477.78;;;1.26;100.00
38530;BME280;24301;54.332;48.386;2022-12-18T11:28:36;98474.34;;;1.27;100.00
38530;BME280;24301;54.332;48.386;2022-12-18T11:31:16;98488.19;;;1.29;100.00
38530;BME280;24301;54.332;48.386;2022-12-18T11:36:41;98463.19;;;1.29;100.00
38530;BME280;24301;54.332;48.386;2022-12-18T11:50:19;98472.81;;;1.40;100.00
38530;BME280;24301;54.332;48.386;2022-12-18T11:52:47;98467.59;;;1.38;100.00
38530;BME280;24301;54.332;48.386;2022-12-18T11:58:44;98461.59;;;1.39;100.00
38530;BME280;24301;54.332;48.386;2022-12-18T12:15:02;98450.44;;;1.45;100.00
38530;BME280;24301;54.332;48.386;2022-12-18T12:17:46;98447.88;;;1.47;100.00
38530;BME280;24301;54.332;48.386;2022-12-18T12:23:02;98472.03;;;1.46;100.00
38530;BME280;24301;54.332;48.386;2022-12-18T12:28:40;98459.13;;;1.49;100.00
38530;BME280;24301;54.332;48.386;2022-12-18T12:31:39;98455.69;;;1.50;100.00
38530;BME280;24301;54.332;48.386;2022-12-18T12:37:45;98466.03;;;1.51;100.00
38530;BME280;24301;54.332;48.386;2022-12-18T12:40:01;98498.06;;;1.53;100.00
38530;BME280;24301;54.332;48.386;2022-12-18T12:42:35;98493.72;;;1.54;100.00
38530;BME280;24301;54.332;48.386;2022-12-18T12:45:47;98484.25;;;1.56;100.00
38530;BME280;24301;54.332;48.386;2022-12-18T12:51:10;98451.41;;;1.53;100.00
38530;BME280;24301;54.332;48.386;2022-12-18T12:53:37;98461.75;;;1.52;100.00
38530;BME280;24301;54.332;48.386;2022-12-18T12:56:05;98466.94;;;1.52;100.00
38530;BME280;24301;54.332;48.386;2022-12-18T13:07:12;98487.81;;;1.63;100.00
38530;BME280;24301;54.332;48.386;2022-12-18T13:10:12;98499.03;;;1.63;100.00
38530;BME280;24301;54.332;48.386;2022-12-18T13:13:17;98495.53;;;1.61;100.00
38530;BME280;24301;54.332;48.386;2022-12-18T13:15:47;98474.00;;;1.64;100.00
38530;BME280;24301;54.332;48.386;2022-12-18T13:18:32;98486.06;;;1.62;100.00
38530;BME280;24301;54.332;48.386;2022-12-18T13:31:15;98500.91;;;1.74;100.00
38530;BME280;24301;54.332;48.386;2022-12-18T13:36:48;98474.97;;;1.72;100.00
38530;BME280;24301;54.332;48.386;2022-12-18T13:41:41;98494.00;;;1.72;100.00
38530;BME280;24301;54.332;48.386;2022-12-18T13:46:50;98480.19;;;1.74;100.00
38530;BME280;24301;54.332;48.386;2022-12-18T13:49:24;98479.28;;;1.73;100.00
38530;BME280;24301;54.332;48.386;2022-12-18T13:51:51;98483.66;;;1.76;100.00
38530;BME280;24301;54.332;48.386;2022-12-18T13:54:33;98468.06;;;1.74;100.00
38530;BME280;24301;54.332;48.386;2022-12-18T13:57:00;98494.00;;;1.72;100.00
38530;BME280;24301;54.332;48.386;2022-12-18T13:59:37;98484.44;;;1.70;100.00
38530;BME280;24301;54.332;48.386;2022-12-18T14:02:24;98479.25;;;1.68;100.00
38530;BME280;24301;54.332;48.386;2022-12-18T14:04:51;98473.22;;;1.71;100.00
38530;BME280;24301;54.332;48.386;2022-12-18T14:07:28;98491.41;;;1.72;100.00
38530;BME280;24301;54.332;48.386;2022-12-18T14:09:56;98492.25;;;1.73;100.00
38530;BME280;24301;54.332;48.386;2022-12-18T14:12:25;98481.88;;;1.71;100.00
38530;BME280;24301;54.332;48.386;2022-12-18T14:18:23;98500.88;;;1.70;100.00
38530;BME280;24301;54.332;48.386;2022-12-18T14:20:52;98509.59;;;1.76;100.00
38530;BME280;24301;54.332;48.386;2022-12-18T14:23:44;98498.41;;;1.78;100.00
38530;BME280;24301;54.332;48.386;2022-12-18T14:26:29;98497.50;;;1.78;100.00
38530;BME280;24301;54.332;48.386;2022-12-18T14:29:17;98507.88;;;1.78;100.00
38530;BME280;24301;54.332;48.386;2022-12-18T14:31:43;98492.31;;;1.78;100.00
38530;BME280;24301;54.332;48.386;2022-12-18T14:34:18;98513.09;;;1.81;100.00
38530;BME280;24301;54.332;48.386;2022-12-18T14:36:54;98495.81;;;1.78;100.00
38530;BME280;24301;54.332;48.386;2022-12-18T14:39:21;98497.53;;;1.81;100.00
38530;BME280;24301;54.332;48.386;2022-12-18T14:41:51;98501.88;;;1.82;100.00
38530;BME280;24301;54.332;48.386;2022-12-18T14:44:17;98492.41;;;1.84;100.00
38530;BME280;24301;54.332;48.386;2022-12-18T14:46:45;98512.22;;;1.77;100.00
38530;BME280;24301;54.332;48.386;2022-12-18T14:49:24;98518.31;;;1.84;100.00